Time;durP1;ratioP1;P1;durP2;ratioP2;P2;SDS_P1;SDS_P2;PMS_P1;PMS_P2;Temp;Humidity;BMP_temperature;BMP_pressure;BME280_temperature;BME280_humidity;BME280_pressure;Samples;Min_cycle;Max_cycle;Signal;HPM_P1;HPM_P2
2022/11/06 00:01:10;;;;;;;;;;;23.90;35.00;;;;;;486244;245;1144;-75
2022/11/06 00:03:11;;;;;;;;;;;23.90;34.90;;;;;;492297;242;2164;-74
2022/11/06 00:07:31;;;;;;;;;;;24.00;34.80;;;;;;492279;242;1185;-74
2022/11/06 00:09:33;;;;;;;;;;;24.00;34.70;;;;;;492266;242;1168;-74
2022/11/06 00:11:34;;;;;;;;;;;24.00;34.60;;;;;;492290;242;1281;-75
2022/11/06 00:13:35;;;;;;;;;;;24.00;34.60;;;;;;492258;242;1359;-74
2022/11/06 00:15:37;;;;;;;;;;;24.10;34.50;;;;;;486251;243;1170;-74
2022/11/06 00:17:38;;;;;;;;;;;24.10;34.40;;;;;;492304;242;1215;-75
2022/11/06 00:19:39;;;;;;;;;;;24.10;34.40;;;;;;486260;245;1246;-74
2022/11/06 00:21:40;;;;;;;;;;;24.10;34.40;;;;;;492326;242;1365;-74
2022/11/06 00:23:42;;;;;;;;;;;24.10;34.40;;;;;;486204;245;2235;-74
2022/11/06 00:25:43;;;;;;;;;;;24.10;34.40;;;;;;492294;242;1224;-74
2022/11/06 00:27:45;;;;;;;;;;;24.10;34.50;;;;;;492244;242;1317;-74
2022/11/06 00:29:46;;;;;;;;;;;24.10;34.40;;;;;;492225;242;1198;-74
2022/11/06 00:31:47;;;;;;;;;;;24.10;34.30;;;;;;486273;245;1224;-74
2022/11/06 00:33:48;;;;;;;;;;;24.20;34.30;;;;;;492287;242;1241;-74
2022/11/06 00:35:50;;;;;;;;;;;24.10;34.30;;;;;;486263;245;1197;-74
2022/11/06 00:37:51;;;;;;;;;;;24.10;34.30;;;;;;492246;242;1363;-74
2022/11/06 00:39:52;;;;;;;;;;;24.20;34.20;;;;;;486279;243;1217;-74
2022/11/06 00:41:54;;;;;;;;;;;24.20;34.20;;;;;;492372;242;1189;-75
2022/11/06 00:43:55;;;;;;;;;;;24.10;34.10;;;;;;492254;242;2188;-75
2022/11/06 00:45:57;;;;;;;;;;;24.10;34.10;;;;;;492315;242;1217;-74
2022/11/06 00:47:58;;;;;;;;;;;24.10;34.20;;;;;;492263;242;1205;-74
2022/11/06 00:49:59;;;;;;;;;;;24.10;34.20;;;;;;492293;242;1251;-74
2022/11/06 00:52:01;;;;;;;;;;;24.20;34.10;;;;;;492392;242;1089;-74
2022/11/06 00:54:02;;;;;;;;;;;24.20;34.10;;;;;;492389;242;1315;-74
2022/11/06 00:56:03;;;;;;;;;;;24.10;34.60;;;;;;486329;245;1212;-74
2022/11/06 00:58:04;;;;;;;;;;;24.20;36.10;;;;;;492301;242;1192;-74
2022/11/06 01:00:06;;;;;;;;;;;24.20;37.80;;;;;;492412;242;1207;-74
2022/11/06 01:02:07;;;;;;;;;;;24.20;37.20;;;;;;492288;242;1306;-74
2022/11/06 01:04:09;;;;;;;;;;;24.10;37.20;;;;;;492276;242;2153;-74
2022/11/06 01:06:10;;;;;;;;;;;24.10;36.80;;;;;;486238;245;1380;-74
2022/11/06 01:08:11;;;;;;;;;;;24.10;37.00;;;;;;492320;242;1226;-74
2022/11/06 01:10:13;;;;;;;;;;;24.10;36.80;;;;;;492199;242;1201;-74
2022/11/06 01:12:14;;;;;;;;;;;24.10;36.60;;;;;;486277;245;1203;-74
2022/11/06 01:14:15;;;;;;;;;;;24.20;36.30;;;;;;492344;242;1164;-74
2022/11/06 01:16:17;;;;;;;;;;;24.20;36.60;;;;;;492223;242;1211;-74
2022/11/06 01:18:18;;;;;;;;;;;24.30;36.30;;;;;;486164;245;1363;-74
2022/11/06 01:20:19;;;;;;;;;;;24.20;36.20;;;;;;492273;242;1309;-74
2022/11/06 01:22:21;;;;;;;;;;;24.20;36.10;;;;;;486202;245;1312;-74
2022/11/06 01:24:22;;;;;;;;;;;24.20;36.10;;;;;;492266;242;2196;-74
2022/11/06 01:26:23;;;;;;;;;;;24.20;36.00;;;;;;486182;243;1405;-74
2022/11/06 01:28:25;;;;;;;;;;;24.20;35.90;;;;;;492265;242;1228;-74
2022/11/06 01:30:26;;;;;;;;;;;24.10;35.80;;;;;;486175;245;1409;-75
2022/11/06 01:32:27;;;;;;;;;;;24.20;35.80;;;;;;492262;242;1228;-74
2022/11/06 01:34:29;;;;;;;;;;;24.10;36.10;;;;;;486209;245;1428;-74
2022/11/06 01:36:30;;;;;;;;;;;24.20;35.80;;;;;;492240;242;1173;-75
2022/11/06 01:38:31;;;;;;;;;;;24.10;35.70;;;;;;486308;245;1181;-74
2022/11/06 01:40:33;;;;;;;;;;;24.10;35.90;;;;;;492259;242;1194;-74
2022/11/06 01:42:34;;;;;;;;;;;24.10;36.20;;;;;;486279;245;1234;-74
2022/11/06 01:44:35;;;;;;;;;;;24.10;35.80;;;;;;492297;242;2176;-74
2022/11/06 01:46:36;;;;;;;;;;;24.10;35.60;;;;;;492338;242;1301;-74
2022/11/06 01:48:38;;;;;;;;;;;24.10;35.90;;;;;;492248;242;1374;-74
2022/11/06 01:50:39;;;;;;;;;;;24.20;35.70;;;;;;492297;242;1167;-74
2022/11/06 01:52:40;;;;;;;;;;;24.10;36.10;;;;;;492344;242;1201;-74
2022/11/06 01:54:42;;;;;;;;;;;24.10;35.90;;;;;;486298;245;1289;-74
2022/11/06 01:56:43;;;;;;;;;;;24.10;35.70;;;;;;492228;242;1222;-74
2022/11/06 01:58:44;;;;;;;;;;;24.10;36.00;;;;;;492243;242;1333;-74
2022/11/06 02:00:46;;;;;;;;;;;24.10;35.80;;;;;;486242;243;1324;-74
2022/11/06 02:02:47;;;;;;;;;;;24.00;36.20;;;;;;492181;242;1184;-74
2022/11/06 02:04:48;;;;;;;;;;;24.10;36.00;;;;;;492210;242;2188;-75
2022/11/06 02:06:50;;;;;;;;;;;24.10;36.10;;;;;;486236;242;1226;-74
2022/11/06 02:08:51;;;;;;;;;;;24.10;36.00;;;;;;492254;242;1217;-74
2022/11/06 02:10:52;;;;;;;;;;;24.10;36.20;;;;;;486259;245;1213;-74
2022/11/06 02:12:54;;;;;;;;;;;24.10;36.20;;;;;;492212;242;1334;-74
2022/11/06 02:14:55;;;;;;;;;;;24.10;35.90;;;;;;486185;241;1376;-74
2022/11/06 02:16:56;;;;;;;;;;;24.10;35.90;;;;;;492253;242;1194;-74
2022/11/06 02:18:58;;;;;;;;;;;24.10;36.20;;;;;;492250;242;1236;-75
2022/11/06 02:20:59;;;;;;;;;;;24.10;36.10;;;;;;492290;242;1223;-74
2022/11/06 02:23:00;;;;;;;;;;;24.10;36.00;;;;;;492248;242;1228;-75
2022/11/06 02:25:02;;;;;;;;;;;24.10;36.50;;;;;;492258;242;2200;-74
2022/11/06 02:27:03;;;;;;;;;;;24.10;36.00;;;;;;492279;242;1310;-74
2022/11/06 02:29:04;;;;;;;;;;;24.10;36.30;;;;;;492370;242;1143;-74
2022/11/06 02:31:06;;;;;;;;;;;24.10;36.30;;;;;;486278;245;1220;-74
2022/11/06 02:33:07;;;;;;;;;;;24.10;36.20;;;;;;492292;242;1341;-74
2022/11/06 02:35:09;;;;;;;;;;;24.10;36.20;;;;;;486249;245;1275;-74
2022/11/06 02:37:10;;;;;;;;;;;24.10;36.30;;;;;;492199;242;1767;-74
2022/11/06 02:39:11;;;;;;;;;;;24.10;36.00;;;;;;486373;245;1197;-74
2022/11/06 02:41:12;;;;;;;;;;;24.10;36.20;;;;;;492371;242;1249;-74
2022/11/06 02:43:14;;;;;;;;;;;24.20;36.20;;;;;;486319;245;1165;-74
2022/11/06 02:45:16;;;;;;;;;;;24.20;36.00;;;;;;492315;242;2144;-74
2022/11/06 02:47:16;;;;;;;;;;;24.20;36.40;;;;;;492291;242;1889;-74
2022/11/06 02:49:18;;;;;;;;;;;24.20;36.00;;;;;;492370;242;1172;-74
2022/11/06 02:51:20;;;;;;;;;;;24.10;36.20;;;;;;492341;242;1266;-74
2022/11/06 02:53:20;;;;;;;;;;;24.10;35.80;;;;;;492313;242;2108;-74
2022/11/06 02:55:22;;;;;;;;;;;24.10;36.30;;;;;;486298;245;1182;-74
2022/11/06 02:57:23;;;;;;;;;;;24.20;35.90;;;;;;492555;242;1251;-74
2022/11/06 02:59:24;;;;;;;;;;;24.20;36.40;;;;;;492371;242;1263;-74
2022/11/06 03:01:25;;;;;;;;;;;24.10;35.90;;;;;;486348;245;1237;-74
2022/11/06 03:03:27;;;;;;;;;;;24.10;36.20;;;;;;492286;242;1173;-74
2022/11/06 03:05:28;;;;;;;;;;;24.10;36.10;;;;;;486315;241;2186;-74
2022/11/06 03:07:29;;;;;;;;;;;24.20;36.40;;;;;;492283;242;1202;-74
2022/11/06 03:09:31;;;;;;;;;;;24.10;35.90;;;;;;486361;245;1239;-74
2022/11/06 03:11:34;;;;;;;;;;;24.10;36.30;;;;;;492343;242;1208;-74
2022/11/06 03:13:34;;;;;;;;;;;24.10;35.90;;;;;;486257;245;1835;-74
2022/11/06 03:15:35;;;;;;;;;;;24.20;36.50;;;;;;492223;242;1210;-74
2022/11/06 03:17:36;;;;;;;;;;;24.20;35.90;;;;;;492224;242;1419;-74
2022/11/06 03:19:38;;;;;;;;;;;24.20;36.40;;;;;;492250;242;1217;-75
2022/11/06 03:21:39;;;;;;;;;;;24.10;35.90;;;;;;492319;242;1243;-74
2022/11/06 03:23:40;;;;;;;;;;;24.20;36.20;;;;;;486231;243;1309;-75
2022/11/06 03:25:42;;;;;;;;;;;24.10;36.20;;;;;;492225;242;2109;-74
2022/11/06 03:27:43;;;;;;;;;;;24.20;36.00;;;;;;486391;245;1284;-74
2022/11/06 03:29:44;;;;;;;;;;;24.10;36.20;;;;;;492243;242;1352;-74
2022/11/06 03:31:45;;;;;;;;;;;24.10;35.90;;;;;;492209;242;1157;-74
2022/11/06 03:33:47;;;;;;;;;;;24.20;36.40;;;;;;486255;245;1222;-74
2022/11/06 03:35:48;;;;;;;;;;;24.10;35.80;;;;;;492203;242;1211;-74
2022/11/06 03:37:49;;;;;;;;;;;24.20;36.40;;;;;;492214;242;1204;-74
2022/11/06 03:39:51;;;;;;;;;;;24.20;36.00;;;;;;486248;245;1155;-74
2022/11/06 03:41:52;;;;;;;;;;;24.20;36.10;;;;;;492308;242;1314;-74
2022/11/06 03:43:54;;;;;;;;;;;24.10;35.90;;;;;;486289;245;1327;-74
2022/11/06 03:45:55;;;;;;;;;;;24.20;36.30;;;;;;492273;242;2116;-75
2022/11/06 03:47:56;;;;;;;;;;;24.10;35.80;;;;;;486222;245;1281;-75
2022/11/06 03:49:57;;;;;;;;;;;24.10;36.20;;;;;;492250;242;1200;-75
2022/11/06 03:51:59;;;;;;;;;;;24.20;36.30;;;;;;486232;243;1229;-75
2022/11/06 03:54:00;;;;;;;;;;;24.10;35.90;;;;;;492214;242;1311;-74
2022/11/06 03:56:01;;;;;;;;;;;24.10;36.30;;;;;;492221;242;1231;-74
2022/11/06 03:58:03;;;;;;;;;;;24.10;36.10;;;;;;486240;245;1213;-74
2022/11/06 04:00:04;;;;;;;;;;;24.10;36.30;;;;;;492236;242;1194;-74
2022/11/06 04:02:05;;;;;;;;;;;24.10;36.10;;;;;;486362;245;1157;-74
2022/11/06 04:04:07;;;;;;;;;;;24.10;36.00;;;;;;492383;242;1248;-74
2022/11/06 04:06:08;;;;;;;;;;;24.10;36.50;;;;;;486204;245;2171;-75
2022/11/06 04:15:07;;;;;;;;;;;24.10;36.50;;;;;;486325;245;1315;-74
2022/11/06 04:17:09;;;;;;;;;;;24.20;36.20;;;;;;492248;242;1177;-74
2022/11/06 04:19:10;;;;;;;;;;;24.10;36.20;;;;;;486252;245;1594;-74
2022/11/06 04:21:24;;;;;;;;;;;24.20;36.10;;;;;;492206;242;1228;-74
2022/11/06 04:23:25;;;;;;;;;;;24.20;35.80;;;;;;486186;245;2196;-74
2022/11/06 04:27:45;;;;;;;;;;;24.10;36.40;;;;;;486288;245;1249;-74
2022/11/06 04:29:46;;;;;;;;;;;24.20;36.40;;;;;;492193;242;1329;-74
2022/11/06 04:31:48;;;;;;;;;;;24.10;35.90;;;;;;486252;243;1243;-74
2022/11/06 04:33:49;;;;;;;;;;;24.10;36.20;;;;;;492347;242;1261;-74
2022/11/06 04:35:50;;;;;;;;;;;24.10;36.20;;;;;;492333;242;1185;-74
2022/11/06 04:37:52;;;;;;;;;;;24.10;36.20;;;;;;486217;245;1608;-74
2022/11/06 04:39:53;;;;;;;;;;;24.10;36.10;;;;;;492375;242;1303;-74
2022/11/06 04:41:54;;;;;;;;;;;24.10;36.20;;;;;;492215;242;1212;-74
2022/11/06 04:43:56;;;;;;;;;;;24.20;35.80;;;;;;492327;242;1351;-74
2022/11/06 04:45:57;;;;;;;;;;;24.20;36.30;;;;;;492331;242;2195;-74
2022/11/06 04:47:58;;;;;;;;;;;24.20;36.30;;;;;;486244;243;1309;-74
2022/11/06 04:50:00;;;;;;;;;;;24.10;35.70;;;;;;492199;242;1173;-74
2022/11/06 04:52:01;;;;;;;;;;;24.10;36.10;;;;;;486201;243;1208;-74
2022/11/06 04:54:03;;;;;;;;;;;24.20;35.80;;;;;;492253;242;1336;-74
2022/11/06 04:56:04;;;;;;;;;;;24.10;36.00;;;;;;492367;242;1180;-74
2022/11/06 04:58:05;;;;;;;;;;;24.10;35.80;;;;;;486203;243;1268;-74
2022/11/06 05:00:07;;;;;;;;;;;24.20;36.00;;;;;;492263;242;1144;-74
2022/11/06 05:02:08;;;;;;;;;;;24.20;36.30;;;;;;492214;242;1332;-74
2022/11/06 05:04:09;;;;;;;;;;;24.20;35.90;;;;;;486198;245;1221;-74
2022/11/06 05:06:11;;;;;;;;;;;24.20;36.00;;;;;;492296;242;2184;-74
2022/11/06 05:08:12;;;;;;;;;;;24.20;36.40;;;;;;486174;245;1235;-74
2022/11/06 05:10:13;;;;;;;;;;;24.20;36.00;;;;;;492220;242;1355;-74
2022/11/06 05:12:15;;;;;;;;;;;24.10;36.00;;;;;;486318;245;1294;-74
2022/11/06 05:14:16;;;;;;;;;;;24.20;36.00;;;;;;492185;242;1294;-74
2022/11/06 05:16:17;;;;;;;;;;;24.20;36.10;;;;;;486282;243;1192;-75
2022/11/06 05:18:19;;;;;;;;;;;24.20;36.30;;;;;;492219;242;1274;-75
2022/11/06 05:20:20;;;;;;;;;;;24.10;35.90;;;;;;492221;242;1386;-74
2022/11/06 05:24:40;;;;;;;;;;;24.20;36.60;;;;;;492321;242;2164;-74
2022/11/06 05:26:42;;;;;;;;;;;24.10;36.50;;;;;;492340;242;1214;-74
2022/11/06 05:28:43;;;;;;;;;;;24.10;36.20;;;;;;486363;245;1211;-74
2022/11/06 05:30:44;;;;;;;;;;;24.10;36.30;;;;;;492329;242;1274;-74
2022/11/06 05:32:46;;;;;;;;;;;24.10;36.00;;;;;;486247;245;1235;-74
2022/11/06 05:34:47;;;;;;;;;;;24.20;36.40;;;;;;492228;242;1156;-74
2022/11/06 05:36:48;;;;;;;;;;;24.10;36.60;;;;;;492291;242;1145;-74
2022/11/06 05:38:50;;;;;;;;;;;24.10;36.20;;;;;;492369;242;1099;-74
2022/11/06 05:40:51;;;;;;;;;;;24.10;36.60;;;;;;492234;242;1097;-74
2022/11/06 05:42:52;;;;;;;;;;;24.10;36.10;;;;;;492341;242;1193;-74
2022/11/06 05:44:54;;;;;;;;;;;24.10;36.50;;;;;;486248;245;2143;-75
2022/11/06 05:46:55;;;;;;;;;;;24.10;36.20;;;;;;492352;242;1178;-75
2022/11/06 05:48:56;;;;;;;;;;;24.10;36.30;;;;;;492268;242;1216;-75
2022/11/06 05:50:58;;;;;;;;;;;24.10;36.00;;;;;;486280;245;1224;-75
2022/11/06 05:52:59;;;;;;;;;;;24.10;36.60;;;;;;492322;242;1227;-75
2022/11/06 05:55:00;;;;;;;;;;;24.10;36.00;;;;;;492226;242;1210;-75
2022/11/06 05:57:02;;;;;;;;;;;24.10;36.20;;;;;;492240;242;1191;-75
2022/11/06 05:59:03;;;;;;;;;;;24.10;36.20;;;;;;492350;242;1324;-75
2022/11/06 06:01:05;;;;;;;;;;;24.20;36.20;;;;;;486390;245;1325;-74
2022/11/06 06:03:06;;;;;;;;;;;24.10;35.90;;;;;;492284;242;1123;-74
2022/11/06 06:05:07;;;;;;;;;;;24.10;36.30;;;;;;492271;242;2183;-74
2022/11/06 06:07:08;;;;;;;;;;;24.10;36.30;;;;;;486328;245;1124;-74
2022/11/06 06:09:10;;;;;;;;;;;24.10;36.10;;;;;;492246;242;1266;-74
2022/11/06 06:11:11;;;;;;;;;;;24.10;36.00;;;;;;486391;243;1177;-74
2022/11/06 06:13:12;;;;;;;;;;;24.10;36.20;;;;;;492226;242;1259;-74
2022/11/06 06:15:14;;;;;;;;;;;24.10;35.90;;;;;;492243;242;1182;-75
2022/11/06 06:17:15;;;;;;;;;;;24.10;36.30;;;;;;486386;243;1220;-74
2022/11/06 06:19:16;;;;;;;;;;;24.10;35.90;;;;;;492254;242;1273;-75
2022/11/06 06:21:17;;;;;;;;;;;24.10;35.80;;;;;;486222;245;1123;-75
2022/11/06 06:23:19;;;;;;;;;;;24.10;36.20;;;;;;492249;242;1189;-75
2022/11/06 06:25:20;;;;;;;;;;;24.00;35.90;;;;;;486252;245;2186;-74
2022/11/06 06:27:22;;;;;;;;;;;24.10;36.10;;;;;;492321;242;1201;-74
2022/11/06 06:29:23;;;;;;;;;;;24.10;35.90;;;;;;486254;245;1280;-74
2022/11/06 06:31:25;;;;;;;;;;;24.10;36.30;;;;;;492424;242;1320;-74
2022/11/06 06:33:25;;;;;;;;;;;24.10;36.10;;;;;;492326;242;1238;-74
2022/11/06 06:35:27;;;;;;;;;;;24.10;36.00;;;;;;486383;245;1199;-74
2022/11/06 06:37:28;;;;;;;;;;;24.10;35.80;;;;;;492352;242;1201;-74
2022/11/06 06:39:30;;;;;;;;;;;24.10;36.00;;;;;;492287;242;1332;-74
2022/11/06 06:41:32;;;;;;;;;;;24.00;36.20;;;;;;492307;242;1467;-74
2022/11/06 06:43:33;;;;;;;;;;;24.00;35.90;;;;;;486300;245;1602;-74
2022/11/06 06:45:34;;;;;;;;;;;24.10;36.40;;;;;;492259;242;2137;-74
2022/11/06 06:47:35;;;;;;;;;;;24.00;36.00;;;;;;492218;242;1221;-74
2022/11/06 06:49:37;;;;;;;;;;;24.00;36.40;;;;;;486221;245;1203;-74
2022/11/06 06:51:38;;;;;;;;;;;24.00;36.20;;;;;;492325;242;1359;-74
2022/11/06 06:53:39;;;;;;;;;;;24.10;36.10;;;;;;492252;242;1217;-74
2022/11/06 06:55:41;;;;;;;;;;;24.10;35.90;;;;;;492170;242;1266;-74
2022/11/06 06:57:42;;;;;;;;;;;24.00;35.90;;;;;;492297;242;1228;-75
2022/11/06 06:59:43;;;;;;;;;;;24.10;36.30;;;;;;492295;242;1305;-74
2022/11/06 07:01:45;;;;;;;;;;;24.00;36.10;;;;;;486324;245;1174;-74
2022/11/06 07:03:46;;;;;;;;;;;24.00;36.20;;;;;;492345;242;1193;-74
2022/11/06 07:05:47;;;;;;;;;;;24.00;36.20;;;;;;492360;242;2188;-74
2022/11/06 07:07:49;;;;;;;;;;;24.00;36.00;;;;;;492351;242;1185;-74
2022/11/06 07:09:51;;;;;;;;;;;24.00;36.10;;;;;;486331;245;1266;-74
2022/11/06 07:11:51;;;;;;;;;;;24.00;36.30;;;;;;492228;242;1844;-74
2022/11/06 07:13:53;;;;;;;;;;;24.00;36.40;;;;;;486350;245;1254;-74
2022/11/06 07:15:54;;;;;;;;;;;24.10;36.40;;;;;;492292;242;1144;-75
2022/11/06 07:17:55;;;;;;;;;;;24.00;36.10;;;;;;492265;242;1267;-75
2022/11/06 07:19:56;;;;;;;;;;;24.00;36.50;;;;;;492232;242;1186;-75
2022/11/06 07:21:58;;;;;;;;;;;24.00;36.30;;;;;;492309;242;1345;-75
2022/11/06 07:23:59;;;;;;;;;;;24.10;36.10;;;;;;492309;242;1266;-74
2022/11/06 07:26:00;;;;;;;;;;;24.00;36.50;;;;;;486174;245;2167;-74
2022/11/06 07:28:02;;;;;;;;;;;24.00;36.30;;;;;;492327;242;1150;-74
2022/11/06 07:30:03;;;;;;;;;;;24.00;36.10;;;;;;492230;242;1188;-74
2022/11/06 07:32:04;;;;;;;;;;;24.00;36.00;;;;;;492294;242;1220;-74
2022/11/06 07:34:06;;;;;;;;;;;24.00;36.10;;;;;;492307;242;1633;-74
2022/11/06 07:36:07;;;;;;;;;;;24.00;36.10;;;;;;492344;242;1209;-74
2022/11/06 07:38:08;;;;;;;;;;;24.10;36.40;;;;;;486280;245;1228;-74
2022/11/06 07:40:10;;;;;;;;;;;24.10;36.20;;;;;;492307;242;1209;-74
2022/11/06 07:42:11;;;;;;;;;;;24.10;36.60;;;;;;492381;242;1205;-74
2022/11/06 07:44:12;;;;;;;;;;;24.10;37.20;;;;;;492269;242;1189;-74
2022/11/06 07:46:14;;;;;;;;;;;24.10;37.50;;;;;;492262;242;2164;-75
2022/11/06 07:48:15;;;;;;;;;;;24.20;37.80;;;;;;492225;242;1337;-74
2022/11/06 07:50:16;;;;;;;;;;;24.20;37.60;;;;;;492275;242;1349;-74
2022/11/06 07:52:18;;;;;;;;;;;24.20;37.60;;;;;;492395;242;1243;-74
2022/11/06 07:54:19;;;;;;;;;;;24.20;37.10;;;;;;486273;243;1214;-74
2022/11/06 07:56:20;;;;;;;;;;;24.10;36.90;;;;;;492353;242;1236;-75
2022/11/06 07:58:22;;;;;;;;;;;24.10;36.80;;;;;;492266;242;1131;-74
2022/11/06 08:00:23;;;;;;;;;;;24.10;36.80;;;;;;486221;245;1187;-74
2022/11/06 08:02:24;;;;;;;;;;;24.00;36.60;;;;;;492215;242;1297;-74
2022/11/06 08:04:26;;;;;;;;;;;24.00;36.60;;;;;;486246;242;1214;-74
2022/11/06 08:06:27;;;;;;;;;;;24.00;36.60;;;;;;492293;242;2196;-74
2022/11/06 08:08:28;;;;;;;;;;;24.00;36.50;;;;;;486342;241;1284;-75
2022/11/06 08:10:30;;;;;;;;;;;23.90;36.50;;;;;;492259;242;1185;-74
2022/11/06 08:12:31;;;;;;;;;;;24.00;36.40;;;;;;492362;242;1252;-74
2022/11/06 08:14:32;;;;;;;;;;;24.00;36.30;;;;;;492334;242;1138;-75
2022/11/06 08:16:34;;;;;;;;;;;24.00;36.30;;;;;;486287;245;1288;-75
2022/11/06 08:18:35;;;;;;;;;;;24.00;36.10;;;;;;492246;242;1138;-75
2022/11/06 08:20:37;;;;;;;;;;;24.00;36.10;;;;;;486202;245;1237;-74
2022/11/06 08:22:37;;;;;;;;;;;24.00;36.00;;;;;;492343;242;1970;-74
2022/11/06 08:24:39;;;;;;;;;;;24.00;35.90;;;;;;492196;242;1363;-74
2022/11/06 08:26:40;;;;;;;;;;;24.00;36.00;;;;;;492311;242;2140;-74
2022/11/06 08:28:42;;;;;;;;;;;23.90;35.90;;;;;;492303;242;1263;-74
2022/11/06 08:30:43;;;;;;;;;;;24.00;36.00;;;;;;486204;245;1179;-74
2022/11/06 08:32:44;;;;;;;;;;;24.00;36.00;;;;;;492339;242;1193;-74
2022/11/06 08:34:45;;;;;;;;;;;23.90;35.90;;;;;;486219;245;1212;-74
2022/11/06 08:36:49;;;;;;;;;;;24.00;35.90;;;;;;492272;242;1182;-74
2022/11/06 08:38:49;;;;;;;;;;;24.00;35.80;;;;;;486239;245;1958;-74
2022/11/06 08:40:50;;;;;;;;;;;24.00;35.80;;;;;;492249;242;1263;-74
2022/11/06 08:42:51;;;;;;;;;;;24.00;35.80;;;;;;492249;242;1326;-74
2022/11/06 08:44:53;;;;;;;;;;;24.00;35.80;;;;;;492190;242;1371;-74
2022/11/06 08:46:54;;;;;;;;;;;24.00;35.90;;;;;;492295;242;2121;-75
2022/11/06 08:48:55;;;;;;;;;;;24.00;35.80;;;;;;492267;242;1243;-74
2022/11/06 08:50:57;;;;;;;;;;;24.00;35.80;;;;;;486319;245;1260;-74
2022/11/06 08:52:59;;;;;;;;;;;23.90;35.80;;;;;;492262;242;1210;-74
2022/11/06 08:54:59;;;;;;;;;;;24.00;35.80;;;;;;492275;242;1810;-74
2022/11/06 08:57:01;;;;;;;;;;;24.00;35.80;;;;;;486251;245;1164;-74
2022/11/06 08:59:02;;;;;;;;;;;24.00;35.80;;;;;;492252;242;1262;-74
2022/11/06 09:01:03;;;;;;;;;;;24.00;35.70;;;;;;486235;245;1244;-74
2022/11/06 09:03:05;;;;;;;;;;;24.10;35.80;;;;;;492302;242;1269;-74
2022/11/06 09:05:06;;;;;;;;;;;24.00;35.80;;;;;;492309;242;1253;-74
2022/11/06 09:07:07;;;;;;;;;;;24.10;35.70;;;;;;486193;245;2187;-74
2022/11/06 09:09:09;;;;;;;;;;;24.10;35.70;;;;;;492242;242;1667;-74
2022/11/06 09:11:10;;;;;;;;;;;24.10;35.80;;;;;;486294;245;1992;-74
2022/11/06 09:13:11;;;;;;;;;;;24.10;35.80;;;;;;492175;242;1187;-74
2022/11/06 09:15:13;;;;;;;;;;;24.10;35.90;;;;;;486287;245;1214;-74
2022/11/06 09:17:14;;;;;;;;;;;24.10;35.90;;;;;;492356;242;1255;-74
2022/11/06 09:19:15;;;;;;;;;;;24.10;35.80;;;;;;492353;242;1347;-74
2022/11/06 09:21:17;;;;;;;;;;;24.10;35.80;;;;;;486286;245;1209;-74
2022/11/06 09:23:18;;;;;;;;;;;24.10;35.90;;;;;;492270;242;1295;-74
2022/11/06 09:25:20;;;;;;;;;;;24.00;36.00;;;;;;486191;243;1217;-74
2022/11/06 09:27:21;;;;;;;;;;;24.10;35.90;;;;;;492241;242;2184;-74
2022/11/06 09:29:22;;;;;;;;;;;24.10;35.90;;;;;;492280;242;1215;-74
2022/11/06 09:31:24;;;;;;;;;;;24.10;35.90;;;;;;486270;245;1290;-74
2022/11/06 09:33:25;;;;;;;;;;;24.10;35.90;;;;;;492261;242;1227;-74
2022/11/06 09:35:26;;;;;;;;;;;24.10;35.90;;;;;;486223;241;1389;-74
2022/11/06 09:37:27;;;;;;;;;;;24.10;35.90;;;;;;492323;242;1234;-75
2022/11/06 09:39:29;;;;;;;;;;;24.10;36.00;;;;;;492262;242;1198;-75
2022/11/06 09:41:30;;;;;;;;;;;24.00;36.00;;;;;;486227;245;1253;-74
2022/11/06 09:43:31;;;;;;;;;;;24.10;36.10;;;;;;492223;242;1135;-74
2022/11/06 09:45:33;;;;;;;;;;;24.10;36.20;;;;;;486270;245;1297;-74
2022/11/06 09:47:34;;;;;;;;;;;24.10;36.20;;;;;;492401;242;2199;-74
2022/11/06 09:49:35;;;;;;;;;;;24.10;36.10;;;;;;492270;242;1270;-74
2022/11/06 09:51:37;;;;;;;;;;;24.10;36.20;;;;;;492364;242;1167;-74
2022/11/06 09:53:38;;;;;;;;;;;24.10;36.20;;;;;;492316;242;1327;-74
2022/11/06 09:55:39;;;;;;;;;;;24.10;36.20;;;;;;486281;245;1200;-74
2022/11/06 09:57:41;;;;;;;;;;;24.10;36.20;;;;;;492329;242;1213;-74
2022/11/06 09:59:42;;;;;;;;;;;24.10;36.20;;;;;;486263;245;1179;-74
2022/11/06 10:01:43;;;;;;;;;;;24.10;36.20;;;;;;492299;242;1152;-74
2022/11/06 10:03:45;;;;;;;;;;;24.10;36.30;;;;;;492279;242;1291;-74
2022/11/06 10:05:46;;;;;;;;;;;24.10;36.40;;;;;;492278;242;1149;-74
2022/11/06 10:07:48;;;;;;;;;;;24.10;36.40;;;;;;486385;245;2198;-74
2022/11/06 10:09:49;;;;;;;;;;;24.10;36.30;;;;;;492283;242;1289;-74
2022/11/06 10:11:50;;;;;;;;;;;24.10;36.30;;;;;;492334;242;1308;-74
2022/11/06 10:13:53;;;;;;;;;;;24.10;36.40;;;;;;492283;242;1256;-74
2022/11/06 10:15:53;;;;;;;;;;;24.10;36.40;;;;;;486272;245;1301;-74
2022/11/06 10:17:57;;;;;;;;;;;24.10;36.30;;;;;;492353;242;1280;-75
2022/11/06 10:22:21;;;;;;;;;;;24.10;36.30;;;;;;486231;245;1198;-74
2022/11/06 10:24:22;;;;;;;;;;;24.20;36.30;;;;;;492218;242;1226;-74
2022/11/06 10:26:24;;;;;;;;;;;24.10;36.30;;;;;;486331;245;1274;-74
2022/11/06 10:28:25;;;;;;;;;;;24.20;36.40;;;;;;492255;242;2183;-74
2022/11/06 10:30:26;;;;;;;;;;;24.10;36.30;;;;;;486232;243;1200;-74
2022/11/06 10:32:27;;;;;;;;;;;24.10;36.40;;;;;;492295;242;1260;-74
2022/11/06 10:34:29;;;;;;;;;;;24.10;36.40;;;;;;492246;242;1183;-74
2022/11/06 10:36:30;;;;;;;;;;;24.20;36.50;;;;;;486326;243;1183;-74
2022/11/06 10:38:32;;;;;;;;;;;24.20;36.40;;;;;;492246;242;1215;-74
2022/11/06 10:40:33;;;;;;;;;;;24.20;36.30;;;;;;486214;245;1235;-74
2022/11/06 10:42:34;;;;;;;;;;;24.20;36.40;;;;;;492395;242;2038;-75
2022/11/06 10:44:35;;;;;;;;;;;24.20;36.40;;;;;;492321;242;1685;-74
2022/11/06 10:46:37;;;;;;;;;;;24.20;36.30;;;;;;486221;245;2163;-74
2022/11/06 10:48:38;;;;;;;;;;;24.20;36.40;;;;;;492317;242;1340;-74
2022/11/06 10:50:39;;;;;;;;;;;24.20;36.40;;;;;;492300;242;1133;-74
2022/11/06 10:52:41;;;;;;;;;;;24.10;36.30;;;;;;492248;242;1178;-74
2022/11/06 10:54:42;;;;;;;;;;;24.20;36.40;;;;;;492224;242;1177;-74
2022/11/06 10:56:46;;;;;;;;;;;24.10;36.40;;;;;;492299;242;1284;-75
2022/11/06 10:58:45;;;;;;;;;;;24.10;36.40;;;;;;492321;242;1996;-74
2022/11/06 11:00:46;;;;;;;;;;;24.10;36.50;;;;;;492329;242;1162;-74
2022/11/06 11:02:47;;;;;;;;;;;24.20;36.60;;;;;;492243;242;1227;-74
2022/11/06 11:04:49;;;;;;;;;;;24.10;36.50;;;;;;486227;245;1301;-74
2022/11/06 11:06:50;;;;;;;;;;;24.10;36.50;;;;;;492344;241;2188;-74
2022/11/06 11:08:51;;;;;;;;;;;24.10;36.40;;;;;;486218;245;1171;-74
2022/11/06 11:10:53;;;;;;;;;;;24.20;36.50;;;;;;492238;242;1179;-75
2022/11/06 11:12:54;;;;;;;;;;;24.20;36.50;;;;;;492292;242;1304;-75
2022/11/06 11:14:55;;;;;;;;;;;24.20;36.50;;;;;;492228;242;1153;-74
2022/11/06 11:16:57;;;;;;;;;;;24.20;36.50;;;;;;486353;245;1161;-74
2022/11/06 11:18:58;;;;;;;;;;;24.20;36.30;;;;;;492310;242;1315;-74
2022/11/06 11:20:59;;;;;;;;;;;24.20;36.30;;;;;;486320;245;1268;-74
2022/11/06 11:23:01;;;;;;;;;;;24.20;36.30;;;;;;492278;242;1189;-74
2022/11/06 11:25:02;;;;;;;;;;;24.30;36.30;;;;;;492222;242;1170;-74
2022/11/06 11:27:03;;;;;;;;;;;24.30;36.20;;;;;;486261;245;2171;-74
2022/11/06 11:29:05;;;;;;;;;;;24.30;36.30;;;;;;492295;242;1279;-74
2022/11/06 11:31:06;;;;;;;;;;;24.30;36.30;;;;;;486288;242;1182;-75
2022/11/06 11:33:07;;;;;;;;;;;24.20;36.30;;;;;;492249;242;1258;-75
2022/11/06 11:35:09;;;;;;;;;;;24.30;36.30;;;;;;492208;242;1266;-74
2022/11/06 11:37:10;;;;;;;;;;;24.20;36.30;;;;;;486270;245;1184;-74
2022/11/06 11:39:11;;;;;;;;;;;24.20;36.20;;;;;;492264;242;1188;-74
2022/11/06 11:41:13;;;;;;;;;;;24.20;36.20;;;;;;486284;245;1213;-74
2022/11/06 11:43:14;;;;;;;;;;;24.20;36.20;;;;;;492237;242;1273;-74
2022/11/06 11:45:15;;;;;;;;;;;24.20;36.20;;;;;;492186;242;1156;-74
2022/11/06 11:47:16;;;;;;;;;;;24.30;36.20;;;;;;492303;242;2179;-74
2022/11/06 11:49:18;;;;;;;;;;;24.20;36.20;;;;;;492254;242;1242;-74
2022/11/06 11:51:19;;;;;;;;;;;24.20;36.10;;;;;;486230;245;1426;-74
2022/11/06 11:53:20;;;;;;;;;;;24.30;36.10;;;;;;492234;242;1222;-74
2022/11/06 11:55:22;;;;;;;;;;;24.30;36.10;;;;;;492215;242;1210;-74
2022/11/06 11:57:23;;;;;;;;;;;24.30;36.10;;;;;;492212;242;1672;-74
2022/11/06 11:59:24;;;;;;;;;;;24.30;36.10;;;;;;492259;242;1173;-74
2022/11/06 12:01:26;;;;;;;;;;;24.30;36.10;;;;;;492301;242;1309;-74
2022/11/06 12:03:27;;;;;;;;;;;24.30;35.90;;;;;;492218;242;1540;-74
2022/11/06 12:05:29;;;;;;;;;;;24.30;36.00;;;;;;492340;242;1231;-74
2022/11/06 12:07:30;;;;;;;;;;;24.30;35.90;;;;;;486237;245;2255;-74
2022/11/06 12:09:31;;;;;;;;;;;24.40;35.90;;;;;;492206;242;1209;-74
2022/11/06 12:11:33;;;;;;;;;;;24.20;35.90;;;;;;486244;245;1305;-74
2022/11/06 12:13:34;;;;;;;;;;;24.30;35.90;;;;;;492275;242;1226;-74